Time;durP1;ratioP1;P1;durP2;ratioP2;P2;SDS_P1;SDS_P2;PMS_P1;PMS_P2;Temp;Humidity;BMP_temperature;BMP_pressure;BME280_temperature;BME280_humidity;BME280_pressure;Samples;Min_cycle;Max_cycle;Signal;HPM_P1;HPM_P2
2022/04/04 00:00:36;;;;;;;;;;;21.60;94.60;;;;;;5075565;28;19913;-70
2022/04/04 00:03:04;;;;;;;;;;;21.50;94.30;;;;;;5075306;28;19915;-69
2022/04/04 00:05:30;;;;;;;;;;;21.70;95.50;;;;;;5067789;28;20354;-69
2022/04/04 00:07:57;;;;;;;;;;;21.80;93.70;;;;;;5056155;28;19908;-69
2022/04/04 00:10:24;;;;;;;;;;;21.80;93.60;;;;;;5054312;28;19917;-69
2022/04/04 00:12:50;;;;;;;;;;;21.80;95.10;;;;;;5067071;28;19909;-69
2022/04/04 00:15:17;;;;;;;;;;;21.90;93.50;;;;;;5075255;28;19912;-67
2022/04/04 00:17:47;;;;;;;;;;;22.00;93.30;;;;;;5075003;28;19908;-68
2022/04/04 00:20:14;;;;;;;;;;;21.90;93.90;;;;;;5074879;28;19909;-69
2022/04/04 00:22:41;;;;;;;;;;;22.00;93.50;;;;;;5075331;28;20385;-68
2022/04/04 00:25:08;;;;;;;;;;;22.00;93.30;;;;;;5075036;28;20375;-69
2022/04/04 00:27:35;;;;;;;;;;;22.10;93.50;;;;;;5074727;28;19909;-69
2022/04/04 00:30:03;;;;;;;;;;;22.20;92.10;;;;;;5074614;28;19964;-69
2022/04/04 00:32:30;;;;;;;;;;;22.30;92.00;;;;;;5074525;28;19908;-69
2022/04/04 00:34:56;;;;;;;;;;;22.30;92.10;;;;;;5074925;28;19995;-69
2022/04/04 00:37:23;;;;;;;;;;;22.30;93.20;;;;;;5074825;28;19966;-69
2022/04/04 00:39:50;;;;;;;;;;;22.30;92.60;;;;;;5074662;28;19934;-68
2022/04/04 00:42:17;;;;;;;;;;;22.30;92.80;;;;;;5074554;28;19915;-69
2022/04/04 00:44:45;;;;;;;;;;;22.50;92.50;;;;;;5074669;28;19908;-69
2022/04/04 00:47:12;;;;;;;;;;;22.50;92.20;;;;;;5074454;28;19908;-68
2022/04/04 00:49:40;;;;;;;;;;;22.60;91.60;;;;;;5074502;28;19909;-68
2022/04/04 00:52:07;;;;;;;;;;;22.60;91.40;;;;;;5074506;28;19999;-68
2022/04/04 00:54:33;;;;;;;;;;;22.70;92.60;;;;;;5074505;28;19915;-68
2022/04/04 00:57:03;;;;;;;;;;;22.80;91.50;;;;;;5074472;28;20007;-68
2022/04/04 00:59:30;;;;;;;;;;;23.00;90.70;;;;;;5074367;28;19908;-68
2022/04/04 01:01:57;;;;;;;;;;;23.00;91.20;;;;;;5074305;28;19952;-68
2022/04/04 01:04:24;;;;;;;;;;;23.10;91.20;;;;;;5073866;28;20007;-69
2022/04/04 01:06:51;;;;;;;;;;;23.00;92.30;;;;;;5074339;28;19991;-69
2022/04/04 01:09:17;;;;;;;;;;;23.00;92.40;;;;;;5074177;28;19916;-70
2022/04/04 01:12:02;;;;;;;;;;;23.00;92.30;;;;;;5073956;28;20373;-68
2022/04/04 01:14:29;;;;;;;;;;;23.00;92.90;;;;;;5073964;28;19999;-69
2022/04/04 01:16:56;;;;;;;;;;;23.20;92.00;;;;;;5073855;28;19909;-68
2022/04/04 01:19:23;;;;;;;;;;;23.30;91.30;;;;;;5073929;28;19912;-68
2022/04/04 01:21:49;;;;;;;;;;;23.60;90.60;;;;;;5073872;28;19969;-69
2022/04/04 01:24:19;;;;;;;;;;;23.70;92.70;;;;;;5073725;28;20343;-68
2022/04/04 01:26:46;;;;;;;;;;;24.60;91.10;;;;;;5073777;28;19915;-69
2022/04/04 01:29:13;;;;;;;;;;;25.10;89.80;;;;;;5073788;28;20412;-69
2022/04/04 01:31:40;;;;;;;;;;;25.10;89.90;;;;;;5073633;28;19916;-69
2022/04/04 01:34:07;;;;;;;;;;;24.80;88.60;;;;;;5073796;28;20003;-69
2022/04/04 01:36:34;;;;;;;;;;;24.60;89.20;;;;;;5073746;28;19962;-69
2022/04/04 01:39:00;;;;;;;;;;;24.50;89.60;;;;;;5073670;28;19908;-69
2022/04/04 01:41:30;;;;;;;;;;;24.60;90.70;;;;;;5073779;28;19909;-69
2022/04/04 01:43:57;;;;;;;;;;;24.60;90.30;;;;;;5071842;28;19909;-70
2022/04/04 01:46:24;;;;;;;;;;;24.40;90.80;;;;;;5073297;28;19909;-69
2022/04/04 01:48:51;;;;;;;;;;;24.30;90.80;;;;;;5073457;28;19978;-69
2022/04/04 01:51:18;;;;;;;;;;;24.30;91.20;;;;;;5073324;28;19924;-68
2022/04/04 01:53:45;;;;;;;;;;;24.30;90.70;;;;;;5073512;28;20026;-69
2022/04/04 01:56:12;;;;;;;;;;;24.20;90.50;;;;;;5073230;28;19962;-70
2022/04/04 01:58:39;;;;;;;;;;;24.30;90.10;;;;;;5073424;28;19912;-70
2022/04/04 02:01:13;;;;;;;;;;;24.20;90.20;;;;;;5073427;28;19954;-70
2022/04/04 02:03:40;;;;;;;;;;;24.20;90.70;;;;;;5073104;28;19920;-69
2022/04/04 02:06:07;;;;;;;;;;;24.10;90.70;;;;;;5073468;28;19909;-70
2022/04/04 02:08:35;;;;;;;;;;;24.10;91.50;;;;;;5073299;28;19909;-69
2022/04/04 02:11:02;;;;;;;;;;;24.10;91.30;;;;;;5073268;28;19923;-70
2022/04/04 02:13:30;;;;;;;;;;;24.20;91.90;;;;;;5073255;28;19919;-69
2022/04/04 02:16:00;;;;;;;;;;;24.20;90.60;;;;;;5073187;28;20278;-68
2022/04/04 02:18:27;;;;;;;;;;;24.20;90.20;;;;;;5072963;28;20358;-70
2022/04/04 02:20:55;;;;;;;;;;;24.00;90.60;;;;;;5073197;28;19909;-68
2022/04/04 02:23:22;;;;;;;;;;;24.00;91.40;;;;;;5073221;28;19908;-69
2022/04/04 02:25:50;;;;;;;;;;;24.10;90.30;;;;;;5073288;28;20314;-69
2022/04/04 02:28:17;;;;;;;;;;;23.90;90.80;;;;;;5071440;28;19916;-69
2022/04/04 02:30:44;;;;;;;;;;;24.00;91.00;;;;;;5072625;28;19916;-68
2022/04/04 02:33:12;;;;;;;;;;;23.70;92.20;;;;;;5071650;28;20002;-70
2022/04/04 02:35:39;;;;;;;;;;;23.80;91.40;;;;;;5073007;28;19957;-69
2022/04/04 02:38:06;;;;;;;;;;;24.00;90.30;;;;;;5073159;28;19998;-69
2022/04/04 02:40:33;;;;;;;;;;;23.90;90.50;;;;;;5073062;28;20004;-69
2022/04/04 02:43:00;;;;;;;;;;;23.80;91.80;;;;;;5073047;28;19909;-69
2022/04/04 02:45:28;;;;;;;;;;;23.70;91.60;;;;;;5072976;28;20275;-69
2022/04/04 02:47:54;;;;;;;;;;;23.50;92.10;;;;;;5072723;28;19912;-68
2022/04/04 02:50:21;;;;;;;;;;;23.40;91.80;;;;;;5072717;28;19912;-68
2022/04/04 02:52:48;;;;;;;;;;;23.50;92.50;;;;;;5072916;28;20389;-70
2022/04/04 02:57:59;;;;;;;;;;;23.70;91.40;;;;;;5077141;28;20377;-69
2022/04/04 03:00:26;;;;;;;;;;;23.80;91.00;;;;;;5076453;28;19908;-69
2022/04/04 03:02:53;;;;;;;;;;;23.80;90.60;;;;;;5076356;28;20278;-69
2022/04/04 03:05:20;;;;;;;;;;;23.80;90.90;;;;;;5076444;28;20381;-70
2022/04/04 03:07:46;;;;;;;;;;;23.90;90.70;;;;;;5076446;28;19944;-69
2022/04/04 03:10:13;;;;;;;;;;;23.90;91.10;;;;;;5076196;28;19923;-70
2022/04/04 03:12:43;;;;;;;;;;;23.80;91.60;;;;;;5076546;28;19912;-71
2022/04/04 03:15:14;;;;;;;;;;;24.10;90.70;;;;;;5076356;28;20382;-70
2022/04/04 03:17:44;;;;;;;;;;;24.20;91.00;;;;;;5076279;28;19908;-68
2022/04/04 03:20:12;;;;;;;;;;;24.30;91.70;;;;;;5076053;28;19908;-69
2022/04/04 03:22:40;;;;;;;;;;;24.30;91.40;;;;;;5076339;28;20275;-69
2022/04/04 03:25:10;;;;;;;;;;;24.20;91.10;;;;;;5076190;28;19913;-70
2022/04/04 03:27:37;;;;;;;;;;;24.20;90.20;;;;;;5076207;28;19908;-69
2022/04/04 03:30:05;;;;;;;;;;;24.30;91.90;;;;;;5076022;28;20354;-69
2022/04/04 03:32:32;;;;;;;;;;;24.50;91.10;;;;;;5075758;28;19916;-69
2022/04/04 03:34:59;;;;;;;;;;;24.50;91.70;;;;;;5076055;28;19913;-69
2022/04/04 03:37:25;;;;;;;;;;;24.50;91.10;;;;;;5075929;28;19909;-69
2022/04/04 03:39:52;;;;;;;;;;;24.60;90.70;;;;;;5075887;28;20347;-69
2022/04/04 03:42:19;;;;;;;;;;;24.60;90.30;;;;;;5075676;28;19915;-68
2022/04/04 03:44:46;;;;;;;;;;;24.70;89.30;;;;;;5075882;28;19917;-69
2022/04/04 03:47:13;;;;;;;;;;;24.60;90.90;;;;;;5075737;28;19908;-69
2022/04/04 03:49:40;;;;;;;;;;;24.50;90.90;;;;;;5075770;28;19909;-69
2022/04/04 03:52:07;;;;;;;;;;;24.50;90.60;;;;;;5075770;28;20329;-68
2022/04/04 03:54:34;;;;;;;;;;;24.60;90.20;;;;;;5075690;28;20366;-69
2022/04/04 03:57:02;;;;;;;;;;;24.60;91.00;;;;;;5075857;28;19999;-69
2022/04/04 03:59:28;;;;;;;;;;;24.80;89.80;;;;;;5075680;28;19912;-69
2022/04/04 04:01:55;;;;;;;;;;;24.80;90.00;;;;;;5075381;28;19909;-70
2022/04/04 04:04:22;;;;;;;;;;;24.60;91.00;;;;;;5075161;28;19921;-69
2022/04/04 04:06:51;;;;;;;;;;;24.60;90.50;;;;;;5075031;28;19916;-69
2022/04/04 04:09:18;;;;;;;;;;;24.90;90.40;;;;;;5075392;28;19912;-68
2022/04/04 04:11:45;;;;;;;;;;;25.00;89.90;;;;;;5075309;28;19916;-70
2022/04/04 04:14:12;;;;;;;;;;;25.00;89.40;;;;;;5075013;28;19908;-69
2022/04/04 04:16:39;;;;;;;;;;;25.20;90.20;;;;;;5075150;28;19912;-69
2022/04/04 04:20:19;;;;;;;;;;;25.20;89.60;;;;;;5075312;28;20276;-69
2022/04/04 04:21:52;;;;;;;;;;;25.10;88.60;;;;;;5075016;28;19944;-68
2022/04/04 04:24:19;;;;;;;;;;;25.20;88.30;;;;;;5074752;28;19912;-69
2022/04/04 04:26:46;;;;;;;;;;;25.30;88.10;;;;;;5074962;28;19912;-68
2022/04/04 04:29:13;;;;;;;;;;;25.30;88.60;;;;;;5074935;28;19967;-69
2022/04/04 04:31:39;;;;;;;;;;;25.20;88.80;;;;;;5074573;28;19917;-70
2022/04/04 04:34:06;;;;;;;;;;;25.10;90.20;;;;;;5074749;28;19908;-69
2022/04/04 04:36:33;;;;;;;;;;;25.10;89.30;;;;;;5073298;28;20270;-70
2022/04/04 04:38:59;;;;;;;;;;;25.00;89.50;;;;;;5067699;28;19919;-69
2022/04/04 04:41:26;;;;;;;;;;;25.00;89.80;;;;;;5062238;28;20271;-70
2022/04/04 04:43:53;;;;;;;;;;;25.00;88.00;;;;;;5055372;28;19915;-69
2022/04/04 04:46:19;;;;;;;;;;;25.00;89.50;;;;;;5074285;28;19934;-70
2022/04/04 04:48:46;;;;;;;;;;;25.00;88.70;;;;;;5074580;28;19915;-69
2022/04/04 04:51:13;;;;;;;;;;;25.10;88.20;;;;;;5074495;28;20492;-70
2022/04/04 04:53:40;;;;;;;;;;;25.20;88.70;;;;;;5074527;28;19909;-70
2022/04/04 04:56:06;;;;;;;;;;;25.30;87.00;;;;;;5074409;28;19909;-70
2022/04/04 04:58:33;;;;;;;;;;;25.10;85.70;;;;;;5074412;28;19916;-69
2022/04/04 05:01:00;;;;;;;;;;;25.00;87.60;;;;;;5074137;28;20382;-69
2022/04/04 05:03:26;;;;;;;;;;;24.90;87.50;;;;;;5074075;28;19913;-70
2022/04/04 05:05:53;;;;;;;;;;;25.10;85.40;;;;;;5074315;28;20011;-69
2022/04/04 05:08:20;;;;;;;;;;;25.00;85.40;;;;;;5072730;28;19908;-70
2022/04/04 05:10:47;;;;;;;;;;;25.20;87.30;;;;;;5074082;28;20278;-70
2022/04/04 05:13:18;;;;;;;;;;;25.40;87.30;;;;;;5073395;28;21313;-69
2022/04/04 05:15:45;;;;;;;;;;;25.30;87.50;;;;;;5073952;28;19916;-70
2022/04/04 05:18:12;;;;;;;;;;;25.40;85.40;;;;;;5073070;28;19938;-69
2022/04/04 05:20:39;;;;;;;;;;;25.40;85.90;;;;;;5074185;28;19912;-69
2022/04/04 05:23:05;;;;;;;;;;;25.30;85.30;;;;;;5072920;28;19909;-70
2022/04/04 05:25:32;;;;;;;;;;;25.30;84.30;;;;;;5073975;28;19916;-69
2022/04/04 05:27:59;;;;;;;;;;;25.30;84.70;;;;;;5072544;28;19977;-70
2022/04/04 05:30:26;;;;;;;;;;;25.20;85.60;;;;;;5073549;28;19913;-70
2022/04/04 05:32:53;;;;;;;;;;;25.20;86.90;;;;;;5073738;28;19920;-69
2022/04/04 05:35:21;;;;;;;;;;;25.30;86.70;;;;;;5073672;28;20434;-69
2022/04/04 05:37:48;;;;;;;;;;;25.40;88.50;;;;;;5073877;28;19947;-69
2022/04/04 05:40:15;;;;;;;;;;;25.20;93.60;;;;;;5073527;28;20054;-69
2022/04/04 05:42:41;;;;;;;;;;;24.90;95.10;;;;;;5073785;28;19998;-69
2022/04/04 05:45:09;;;;;;;;;;;24.60;96.30;;;;;;5072529;28;19909;-68
2022/04/04 05:47:36;;;;;;;;;;;24.40;97.30;;;;;;5073730;28;19915;-69
2022/04/04 05:50:03;;;;;;;;;;;24.30;97.80;;;;;;5073629;28;20541;-69
2022/04/04 05:52:29;;;;;;;;;;;24.20;98.50;;;;;;5072074;28;20306;-69
2022/04/04 05:55:01;;;;;;;;;;;24.10;98.70;;;;;;5073827;28;19909;-69
2022/04/04 05:57:29;;;;;;;;;;;24.00;98.10;;;;;;5072391;28;19909;-69
2022/04/04 05:59:56;;;;;;;;;;;23.80;98.30;;;;;;5073716;28;19915;-70
2022/04/04 06:02:23;;;;;;;;;;;23.60;98.80;;;;;;5073543;28;19909;-70
2022/04/04 06:04:51;;;;;;;;;;;23.60;98.40;;;;;;5073660;28;19927;-70
2022/04/04 06:07:18;;;;;;;;;;;23.50;97.90;;;;;;5073919;28;20378;-70
2022/04/04 06:09:44;;;;;;;;;;;23.30;97.70;;;;;;5074401;28;20362;-70
2022/04/04 06:12:11;;;;;;;;;;;23.20;97.90;;;;;;5075720;28;19912;-70
2022/04/04 06:14:39;;;;;;;;;;;23.20;98.00;;;;;;5075922;28;20358;-71
2022/04/04 06:17:06;;;;;;;;;;;23.20;97.60;;;;;;5074115;28;19909;-70
2022/04/04 06:19:34;;;;;;;;;;;23.10;96.50;;;;;;5072678;28;19916;-70
2022/04/04 06:22:01;;;;;;;;;;;23.10;96.50;;;;;;5073420;28;20347;-70
2022/04/04 06:24:28;;;;;;;;;;;23.00;96.70;;;;;;5073196;28;19913;-70
2022/04/04 06:26:55;;;;;;;;;;;22.90;97.20;;;;;;5073498;28;19916;-71
2022/04/04 06:29:22;;;;;;;;;;;22.90;97.50;;;;;;5075769;28;19908;-70
2022/04/04 06:31:50;;;;;;;;;;;22.90;97.20;;;;;;5077468;28;20011;-70
2022/04/04 06:34:18;;;;;;;;;;;22.90;97.20;;;;;;5077227;28;19940;-71
2022/04/04 06:36:45;;;;;;;;;;;22.90;97.40;;;;;;5077630;28;19909;-70
2022/04/04 06:39:11;;;;;;;;;;;22.80;97.40;;;;;;5077339;28;19911;-71
2022/04/04 06:41:38;;;;;;;;;;;22.80;97.60;;;;;;5077151;28;20398;-69
2022/04/04 06:44:05;;;;;;;;;;;22.80;97.40;;;;;;5077181;28;19916;-70
2022/04/04 06:46:35;;;;;;;;;;;22.70;97.40;;;;;;5076830;28;19915;-69
2022/04/04 06:49:06;;;;;;;;;;;22.70;97.70;;;;;;5075577;28;19958;-70
2022/04/04 06:51:33;;;;;;;;;;;22.70;97.80;;;;;;5075040;28;19917;-70
2022/04/04 06:54:00;;;;;;;;;;;22.70;98.10;;;;;;5074976;28;20003;-70
2022/04/04 06:56:27;;;;;;;;;;;22.70;98.40;;;;;;5074532;28;19920;-70
2022/04/04 06:58:54;;;;;;;;;;;22.60;98.90;;;;;;5074781;28;19914;-70
2022/04/04 07:01:21;;;;;;;;;;;22.50;99.40;;;;;;5074540;28;19955;-70
2022/04/04 07:03:47;;;;;;;;;;;22.40;99.70;;;;;;5073957;28;19920;-70
2022/04/04 07:06:15;;;;;;;;;;;22.30;99.50;;;;;;5074200;28;19953;-69
2022/04/04 07:08:43;;;;;;;;;;;22.30;99.80;;;;;;5074386;28;19908;-70
2022/04/04 07:11:10;;;;;;;;;;;22.30;99.80;;;;;;5074298;28;19924;-70
2022/04/04 07:13:37;;;;;;;;;;;22.20;99.70;;;;;;5074180;28;19913;-70
2022/04/04 07:16:04;;;;;;;;;;;22.10;99.30;;;;;;5074081;28;19920;-70
2022/04/04 07:18:31;;;;;;;;;;;22.10;99.00;;;;;;5073572;28;19924;-70
2022/04/04 07:20:58;;;;;;;;;;;22.10;99.40;;;;;;5074103;28;20303;-70
2022/04/04 07:23:24;;;;;;;;;;;22.00;99.50;;;;;;5074108;28;20357;-70
2022/04/04 07:25:51;;;;;;;;;;;22.00;99.90;;;;;;5074187;28;20021;-70
2022/04/04 07:28:20;;;;;;;;;;;22.00;99.90;;;;;;5073984;28;19912;-70
2022/04/04 07:30:47;;;;;;;;;;;21.90;99.90;;;;;;5073441;28;20016;-70
2022/04/04 07:33:15;;;;;;;;;;;21.90;99.90;;;;;;5072513;28;19961;-70
2022/04/04 07:35:42;;;;;;;;;;;21.80;99.90;;;;;;5074081;28;19916;-70
2022/04/04 07:38:12;;;;;;;;;;;21.80;99.90;;;;;;5073634;28;19912;-70
2022/04/04 07:40:40;;;;;;;;;;;21.90;99.90;;;;;;5072853;28;19912;-70
2022/04/04 07:43:07;;;;;;;;;;;21.90;99.90;;;;;;5073309;28;19952;-69
2022/04/04 07:45:33;;;;;;;;;;;21.90;99.90;;;;;;5073479;28;20374;-70
2022/04/04 07:48:01;;;;;;;;;;;21.80;99.90;;;;;;5073554;28;19995;-69
2022/04/04 07:50:28;;;;;;;;;;;21.80;99.90;;;;;;5071902;28;20351;-70
2022/04/04 07:52:55;;;;;;;;;;;21.80;99.90;;;;;;5072045;28;19952;-70
2022/04/04 07:55:22;;;;;;;;;;;21.70;99.90;;;;;;5073601;28;19908;-70
2022/04/04 07:57:48;;;;;;;;;;;21.60;99.90;;;;;;5073078;28;20003;-70
2022/04/04 08:00:17;;;;;;;;;;;21.60;99.90;;;;;;5073196;28;19999;-70
2022/04/04 08:02:45;;;;;;;;;;;21.60;99.90;;;;;;5073509;28;19918;-69
2022/04/04 08:05:12;;;;;;;;;;;21.50;99.90;;;;;;5073136;28;19924;-70
2022/04/04 08:07:40;;;;;;;;;;;21.50;99.90;;;;;;5073250;28;19943;-69
2022/04/04 08:10:07;;;;;;;;;;;21.40;99.90;;;;;;5072680;28;19920;-70
2022/04/04 08:12:35;;;;;;;;;;;21.40;99.90;;;;;;5073435;28;19909;-70
2022/04/04 08:15:03;;;;;;;;;;;21.40;99.90;;;;;;5073193;28;19943;-70
2022/04/04 08:17:30;;;;;;;;;;;21.40;99.90;;;;;;5073286;28;19917;-70
2022/04/04 08:19:57;;;;;;;;;;;21.40;99.90;;;;;;5073069;28;19954;-70
2022/04/04 08:22:24;;;;;;;;;;;21.40;99.90;;;;;;5072540;28;19912;-70
2022/04/04 08:24:51;;;;;;;;;;;21.40;99.90;;;;;;5073013;28;19919;-70
2022/04/04 08:27:18;;;;;;;;;;;21.30;99.90;;;;;;5072959;28;20003;-70
2022/04/04 08:29:44;;;;;;;;;;;21.30;99.90;;;;;;5071490;28;20369;-69
2022/04/04 08:32:11;;;;;;;;;;;21.30;99.90;;;;;;5072764;28;19916;-69
2022/04/04 08:34:38;;;;;;;;;;;21.20;99.90;;;;;;5072834;28;19916;-71
2022/04/04 08:37:04;;;;;;;;;;;21.10;99.90;;;;;;5072324;28;19954;-69
2022/04/04 08:39:31;;;;;;;;;;;21.10;99.90;;;;;;5072462;28;19909;-70
2022/04/04 08:41:58;;;;;;;;;;;21.10;99.90;;;;;;5072736;28;19908;-70
2022/04/04 08:44:25;;;;;;;;;;;21.10;99.90;;;;;;5072421;28;19908;-69
2022/04/04 08:46:52;;;;;;;;;;;21.10;99.90;;;;;;5072607;28;20026;-70
2022/04/04 08:49:19;;;;;;;;;;;21.00;99.90;;;;;;5072293;28;19913;-70
2022/04/04 08:51:47;;;;;;;;;;;21.10;99.90;;;;;;5072354;28;19920;-71
2022/04/04 08:54:14;;;;;;;;;;;21.10;99.90;;;;;;5072344;28;20274;-70
2022/04/04 08:56:42;;;;;;;;;;;21.10;99.90;;;;;;5072510;28;20321;-70
2022/04/04 08:59:09;;;;;;;;;;;21.10;99.90;;;;;;5072101;28;19923;-71
2022/04/04 09:01:36;;;;;;;;;;;21.00;99.90;;;;;;5072089;28;19923;-71
2022/04/04 09:04:06;;;;;;;;;;;21.00;99.90;;;;;;5071889;28;19997;-70
2022/04/04 09:06:46;;;;;;;;;;;21.00;99.90;;;;;;5073758;28;20271;-69
2022/04/04 09:09:17;;;;;;;;;;;20.90;99.90;;;;;;5074283;28;19908;-69
2022/04/04 09:11:51;;;;;;;;;;;20.90;99.90;;;;;;5074320;28;20011;-70
2022/04/04 09:14:21;;;;;;;;;;;20.90;99.90;;;;;;5073976;28;19921;-70
2022/04/04 09:16:55;;;;;;;;;;;20.80;99.90;;;;;;5074284;28;19991;-70
2022/04/04 09:19:31;;;;;;;;;;;20.80;99.90;;;;;;5074174;28;20311;-70
2022/04/04 09:22:04;;;;;;;;;;;20.80;99.90;;;;;;5074232;28;19936;-70
2022/04/04 09:24:50;;;;;;;;;;;20.70;99.90;;;;;;5073784;28;19908;-70
2022/04/04 09:27:23;;;;;;;;;;;20.80;99.90;;;;;;5074184;28;19914;-70
2022/04/04 09:29:50;;;;;;;;;;;20.70;99.90;;;;;;5073969;28;20397;-70
2022/04/04 09:32:26;;;;;;;;;;;20.70;99.90;;;;;;5073774;28;19913;-71
2022/04/04 09:35:00;;;;;;;;;;;20.70;99.90;;;;;;5073994;28;19951;-71
2022/04/04 09:37:28;;;;;;;;;;;20.70;99.90;;;;;;5073662;28;19936;-69
2022/04/04 09:40:14;;;;;;;;;;;20.70;99.90;;;;;;5106346;28;19928;-70
2022/04/04 09:42:41;;;;;;;;;;;20.70;99.90;;;;;;5073657;28;20393;-69
2022/04/04 09:45:09;;;;;;;;;;;20.80;99.90;;;;;;5073494;28;19912;-69
2022/04/04 09:47:50;;;;;;;;;;;20.80;99.90;;;;;;5073520;28;19909;-70
2022/04/04 09:50:37;;;;;;;;;;;20.80;99.90;;;;;;5057445;28;19924;-70
2022/04/04 09:53:05;;;;;;;;;;;20.70;99.90;;;;;;5054265;28;20256;-71
2022/04/04 09:55:36;;;;;;;;;;;20.70;99.90;;;;;;5050861;28;20022;-68
2022/04/04 09:58:05;;;;;;;;;;;20.80;99.90;;;;;;5050795;28;20367;-70
2022/04/04 10:00:34;;;;;;;;;;;20.70;99.90;;;;;;5050877;28;19919;-70
2022/04/04 10:03:03;;;;;;;;;;;20.70;99.90;;;;;;5049415;28;20229;-69
2022/04/04 10:05:29;;;;;;;;;;;20.70;99.90;;;;;;5050478;28;19929;-69
2022/04/04 10:07:57;;;;;;;;;;;20.70;99.90;;;;;;5050667;28;19913;-69
2022/04/04 10:10:28;;;;;;;;;;;20.60;99.90;;;;;;5050333;28;19917;-69
2022/04/04 10:12:55;;;;;;;;;;;20.60;99.90;;;;;;5050494;28;20375;-69
2022/04/04 10:15:22;;;;;;;;;;;20.60;99.90;;;;;;5050355;28;19916;-69
2022/04/04 10:17:50;;;;;;;;;;;20.60;99.90;;;;;;5049600;28;20800;-69
2022/04/04 10:20:17;;;;;;;;;;;20.50;99.90;;;;;;5050335;28;19909;-69
2022/04/04 10:22:48;;;;;;;;;;;20.50;99.90;;;;;;5050693;28;19963;-69
2022/04/04 10:25:15;;;;;;;;;;;20.50;99.90;;;;;;5050472;28;19913;-70
2022/04/04 10:27:46;;;;;;;;;;;20.40;99.90;;;;;;5050394;28;19912;-69
2022/04/04 10:30:13;;;;;;;;;;;20.50;99.90;;;;;;5050127;28;19939;-70
2022/04/04 10:32:50;;;;;;;;;;;20.50;99.90;;;;;;5049799;28;20260;-70
2022/04/04 10:35:19;;;;;;;;;;;20.50;99.90;;;;;;5050471;28;19916;-71
2022/04/04 10:37:46;;;;;;;;;;;20.50;99.90;;;;;;5050272;28;19959;-70
2022/04/04 10:40:23;;;;;;;;;;;20.40;99.90;;;;;;5050507;28;19920;-69
2022/04/04 10:43:02;;;;;;;;;;;20.40;99.90;;;;;;5050076;28;20382;-70
2022/04/04 10:45:30;;;;;;;;;;;20.40;99.90;;;;;;5050064;28;19954;-71
2022/04/04 10:48:09;;;;;;;;;;;20.40;99.90;;;;;;5049650;28;19909;-71
2022/04/04 10:50:42;;;;;;;;;;;20.40;99.90;;;;;;5065453;28;19920;-71
2022/04/04 10:53:09;;;;;;;;;;;20.30;99.90;;;;;;5050078;28;19913;-70
2022/04/04 10:55:38;;;;;;;;;;;20.30;99.90;;;;;;5049637;28;19909;-71
2022/04/04 10:58:08;;;;;;;;;;;20.30;99.90;;;;;;5050041;28;19909;-70
2022/04/04 11:00:35;;;;;;;;;;;20.30;99.90;;;;;;5050025;28;19996;-71
2022/04/04 11:03:02;;;;;;;;;;;20.30;99.90;;;;;;5064937;28;20456;-70
2022/04/04 11:08:30;;;;;;;;;;;20.30;99.90;;;;;;5049757;28;19971;-70
2022/04/04 11:10:57;;;;;;;;;;;20.30;99.90;;;;;;5050054;28;20011;-70
2022/04/04 11:13:24;;;;;;;;;;;20.20;99.90;;;;;;5049900;28;19909;-70
2022/04/04 11:15:54;;;;;;;;;;;20.20;99.90;;;;;;5051118;28;20275;-70
2022/04/04 11:18:21;;;;;;;;;;;20.20;99.90;;;;;;5052961;28;20279;-71
2022/04/04 11:20:59;;;;;;;;;;;20.30;99.90;;;;;;5053461;28;19909;-70
2022/04/04 11:23:34;;;;;;;;;;;20.20;99.90;;;;;;5054249;28;19912;-70
2022/04/04 11:26:01;;;;;;;;;;;20.30;99.90;;;;;;5053370;28;20278;-70
2022/04/04 11:28:32;;;;;;;;;;;20.20;99.90;;;;;;5053277;28;19913;-70
2022/04/04 11:31:09;;;;;;;;;;;20.20;99.90;;;;;;5053458;28;19927;-70
2022/04/04 11:33:51;;;;;;;;;;;20.20;99.90;;;;;;5052842;28;19909;-70
2022/04/04 11:36:22;;;;;;;;;;;20.20;99.90;;;;;;5052815;28;19920;-71
2022/04/04 11:38:51;;;;;;;;;;;20.20;99.90;;;;;;5053350;28;19940;-70
2022/04/04 11:41:22;;;;;;;;;;;20.30;99.90;;;;;;5053334;28;19928;-71
2022/04/04 11:43:52;;;;;;;;;;;20.30;99.90;;;;;;5053129;28;20428;-70
2022/04/04 11:46:19;;;;;;;;;;;20.30;99.90;;;;;;5053007;28;20375;-70
2022/04/04 11:48:57;;;;;;;;;;;20.40;99.90;;;;;;5052102;28;20298;-70
2022/04/04 11:51:31;;;;;;;;;;;20.40;99.90;;;;;;5053085;28;20256;-70
2022/04/04 11:54:01;;;;;;;;;;;20.30;99.90;;;;;;5053250;28;19916;-70
2022/04/04 11:56:28;;;;;;;;;;;20.30;99.90;;;;;;5052738;28;19909;-70
2022/04/04 11:58:55;;;;;;;;;;;20.30;99.90;;;;;;5052719;28;20283;-71
2022/04/04 12:01:32;;;;;;;;;;;20.30;99.90;;;;;;5052521;28;19920;-71
2022/04/04 12:04:00;;;;;;;;;;;20.20;99.90;;;;;;5052851;28;20016;-70
2022/04/04 12:06:31;;;;;;;;;;;20.20;99.90;;;;;;5052543;28;19920;-70
2022/04/04 12:09:03;;;;;;;;;;;20.10;99.90;;;;;;5052908;28;20644;-70
2022/04/04 12:11:30;;;;;;;;;;;20.10;99.90;;;;;;5052733;28;19925;-70
2022/04/04 12:13:58;;;;;;;;;;;20.10;99.90;;;;;;5052095;28;20278;-70
2022/04/04 12:16:25;;;;;;;;;;;20.10;99.90;;;;;;5051732;28;19908;-71
2022/04/04 12:18:55;;;;;;;;;;;20.10;99.90;;;;;;5052489;28;20176;-71
2022/04/04 12:21:22;;;;;;;;;;;20.00;99.90;;;;;;5052390;28;19909;-71
2022/04/04 12:26:34;;;;;;;;;;;19.90;99.90;;;;;;5051670;28;20268;-71
2022/04/04 12:29:03;;;;;;;;;;;19.80;99.90;;;;;;5052186;28;20290;-70
2022/04/04 12:31:29;;;;;;;;;;;19.80;99.90;;;;;;5051624;28;20374;-71
2022/04/04 12:34:01;;;;;;;;;;;19.70;99.90;;;;;;5052296;28;19978;-71
2022/04/04 12:36:38;;;;;;;;;;;19.70;99.90;;;;;;5051983;28;19931;-71
2022/04/04 12:39:05;;;;;;;;;;;19.70;99.90;;;;;;5052258;28;19934;-71
2022/04/04 12:41:45;;;;;;;;;;;19.80;99.90;;;;;;5051853;28;19913;-70
2022/04/04 12:44:12;;;;;;;;;;;19.70;99.90;;;;;;5051935;28;20000;-71
2022/04/04 12:46:39;;;;;;;;;;;19.70;99.90;;;;;;5051662;28;19917;-71
2022/04/04 12:49:09;;;;;;;;;;;19.70;99.90;;;;;;5051859;28;19912;-70
2022/04/04 12:51:35;;;;;;;;;;;19.70;99.90;;;;;;5051998;28;19939;-70
2022/04/04 12:54:03;;;;;;;;;;;19.70;99.90;;;;;;5051501;28;20282;-70
2022/04/04 12:56:32;;;;;;;;;;;19.70;99.90;;;;;;5051568;28;19946;-70
2022/04/04 12:59:05;;;;;;;;;;;19.70;99.90;;;;;;5051598;28;19909;-71
2022/04/04 13:01:32;;;;;;;;;;;19.70;99.90;;;;;;5051425;28;19967;-70
2022/04/04 13:03:59;;;;;;;;;;;19.70;99.90;;;;;;5051457;28;19921;-70
2022/04/04 13:06:30;;;;;;;;;;;19.70;99.90;;;;;;5050973;28;19916;-70
2022/04/04 13:09:01;;;;;;;;;;;19.60;99.90;;;;;;5051519;28;19931;-71
2022/04/04 13:11:29;;;;;;;;;;;19.60;99.90;;;;;;5051323;28;19921;-71
2022/04/04 13:13:57;;;;;;;;;;;19.60;99.90;;;;;;5051333;28;19909;-70
2022/04/04 13:16:31;;;;;;;;;;;19.50;99.90;;;;;;5050499;28;19909;-71
2022/04/04 13:18:59;;;;;;;;;;;19.60;99.90;;;;;;5050992;28;19912;-70
2022/04/04 13:21:26;;;;;;;;;;;19.50;99.90;;;;;;5051251;28;19986;-70
2022/04/04 13:23:52;;;;;;;;;;;19.50;99.90;;;;;;5051200;28;19948;-70
2022/04/04 13:26:19;;;;;;;;;;;19.50;99.90;;;;;;5051047;28;19924;-72
2022/04/04 13:28:46;;;;;;;;;;;19.50;99.90;;;;;;5050965;28;19959;-70
2022/04/04 13:31:12;;;;;;;;;;;19.50;99.90;;;;;;5050421;28;19960;-70
2022/04/04 13:33:39;;;;;;;;;;;19.50;99.90;;;;;;5050704;28;19936;-70
2022/04/04 13:36:06;;;;;;;;;;;19.50;99.90;;;;;;5051817;28;19910;-70
2022/04/04 13:38:33;;;;;;;;;;;19.50;99.90;;;;;;5070968;28;19908;-71
2022/04/04 13:41:00;;;;;;;;;;;19.60;99.90;;;;;;5071631;28;19919;-71
2022/04/04 13:43:27;;;;;;;;;;;19.50;99.90;;;;;;5071477;28;19916;-71
2022/04/04 13:45:54;;;;;;;;;;;19.50;99.90;;;;;;5071192;28;19955;-72
2022/04/04 13:48:20;;;;;;;;;;;19.50;99.90;;;;;;5071370;28;19932;-71
2022/04/04 13:50:48;;;;;;;;;;;19.50;99.90;;;;;;5071298;28;19920;-71
2022/04/04 13:53:14;;;;;;;;;;;19.50;99.90;;;;;;5071464;28;20373;-71
2022/04/04 13:55:41;;;;;;;;;;;19.50;99.90;;;;;;5071444;28;19915;-71
2022/04/04 13:58:08;;;;;;;;;;;19.50;99.90;;;;;;5070697;28;19913;-71
2022/04/04 14:00:38;;;;;;;;;;;19.40;99.90;;;;;;5071447;28;19973;-71
2022/04/04 14:03:05;;;;;;;;;;;19.40;99.90;;;;;;5071407;28;19963;-71
2022/04/04 14:05:31;;;;;;;;;;;19.40;99.90;;;;;;5071286;28;19931;-71
2022/04/04 14:07:58;;;;;;;;;;;19.40;99.90;;;;;;5071397;28;20422;-71
2022/04/04 14:10:26;;;;;;;;;;;19.30;99.90;;;;;;5070990;28;19923;-72
2022/04/04 14:12:53;;;;;;;;;;;19.30;99.90;;;;;;5070847;28;19966;-72
2022/04/04 14:15:20;;;;;;;;;;;19.20;99.90;;;;;;5071162;28;19920;-71
2022/04/04 14:17:47;;;;;;;;;;;19.20;99.90;;;;;;5071197;28;19912;-71
2022/04/04 14:20:13;;;;;;;;;;;19.20;99.90;;;;;;5071066;28;19920;-72
2022/04/04 14:22:40;;;;;;;;;;;19.20;99.90;;;;;;5071257;28;19913;-72
2022/04/04 14:25:07;;;;;;;;;;;19.20;99.90;;;;;;5070750;28;19912;-71
2022/04/04 14:27:34;;;;;;;;;;;19.20;99.90;;;;;;5071022;28;19940;-71
2022/04/04 14:30:01;;;;;;;;;;;19.20;99.90;;;;;;5071076;28;19951;-72